TAF Text Data
IDs:
Format:
Raw Decoded Include METAR

Data at: 1305 UTC 26 Feb 2021

KPGD 261120Z 2612/2712 VRB04KT P6SM SKC
  FM261400 13007KT P6SM SKC
  FM261900 19007KT P6SM SCT040
  FM270000 VRB03KT P6SM FEW035